Terminal Aerodrome Forecast
Issued by NWS Indianapolis, IN

Home | Current Version | Previous Version | Text Only | Print | Product List | Glossary On
Versions: 1 2 3 4 5 6 7 8 9 10 11 12 13 14 15 16 17 18 19 20 21 22 23 24 25
612
FTUS43 KIND 280418 AAB
TAFIND
TAF AMD
KIND 280418Z 2804/2906 24006KT P6SM BKN030
     FM280700 14004KT P6SM BKN100
     FM281700 14009KT P6SM VCSH OVC070
     FM290000 13008KT P6SM SHRA OVC025
     FM290200 17006KT 5SM SHRA OVC015=

USA.gov is the U.S. government's official web portal to all federal, state and local government web resources and services.